createdAt,value
2017-11-24T00:00:05.383Z,12.70
2017-11-24T00:02:32.833Z,12.70
2017-11-24T00:05:00.326Z,12.70
2017-11-24T00:07:27.794Z,12.70
2017-11-24T00:09:55.206Z,12.70
2017-11-24T00:12:23.130Z,12.70
2017-11-24T00:14:50.563Z,12.70
2017-11-24T00:17:18.033Z,12.80
2017-11-24T00:19:45.476Z,12.80
2017-11-24T00:22:15.897Z,12.80
2017-11-24T00:24:43.369Z,12.80
2017-11-24T00:27:10.807Z,12.80
2017-11-24T00:29:38.245Z,12.80
2017-11-24T00:32:05.673Z,12.80
2017-11-24T00:34:33.101Z,12.80
2017-11-24T00:37:00.974Z,12.90
2017-11-24T00:39:28.485Z,12.90
2017-11-24T00:41:55.910Z,12.90
2017-11-24T00:44:23.416Z,13.00
2017-11-24T00:46:50.877Z,13.00
2017-11-24T00:49:18.310Z,13.00
2017-11-24T00:51:45.898Z,13.00
2017-11-24T00:54:13.329Z,13.10
2017-11-24T00:56:40.744Z,13.10
2017-11-24T00:59:08.204Z,13.10
2017-11-24T01:01:35.642Z,13.10
2017-11-24T01:04:03.070Z,13.10
2017-11-24T01:06:30.528Z,13.10
2017-11-24T01:08:58.010Z,13.10
2017-11-24T01:11:25.441Z,13.10
2017-11-24T01:13:53.309Z,13.20
2017-11-24T01:16:21.124Z,13.20
2017-11-24T01:18:48.564Z,13.20
2017-11-24T01:21:16.028Z,13.20
2017-11-24T01:23:45.230Z,13.20
2017-11-24T01:26:12.649Z,13.20
2017-11-24T01:28:40.097Z,13.20
2017-11-24T01:31:07.533Z,13.20
2017-11-24T01:33:34.992Z,13.20
2017-11-24T01:36:02.435Z,13.20
2017-11-24T01:38:29.864Z,13.20
2017-11-24T01:40:57.696Z,13.20
2017-11-24T01:43:25.146Z,13.20
2017-11-24T01:45:52.549Z,13.10
2017-11-24T01:48:19.989Z,13.20
2017-11-24T01:50:47.411Z,13.20
2017-11-24T01:53:14.890Z,13.20
2017-11-24T01:55:42.334Z,13.20
2017-11-24T01:58:09.765Z,13.20
2017-11-24T02:00:37.629Z,13.20
2017-11-24T02:03:05.051Z,13.20
2017-11-24T02:05:32.477Z,13.20
2017-11-24T02:08:00.882Z,13.20
2017-11-24T02:10:28.305Z,13.20
2017-11-24T02:12:56.225Z,13.20
2017-11-24T02:15:23.745Z,13.20
2017-11-24T02:17:51.596Z,13.20
2017-11-24T02:20:19.012Z,13.20
2017-11-24T02:22:46.478Z,13.20
2017-11-24T02:25:13.913Z,13.20
2017-11-24T02:27:41.343Z,13.20
2017-11-24T02:30:08.786Z,13.20
2017-11-24T02:32:36.221Z,13.20
2017-11-24T02:35:03.642Z,13.20
2017-11-24T02:37:31.473Z,13.20
2017-11-24T02:39:58.909Z,13.20
2017-11-24T02:42:26.366Z,13.20
2017-11-24T02:44:53.805Z,13.30
2017-11-24T02:47:21.608Z,13.30
2017-11-24T02:49:50.188Z,13.30
2017-11-24T02:52:17.621Z,13.30
2017-11-24T02:54:45.453Z,13.30
2017-11-24T02:57:12.913Z,13.30
2017-11-24T02:59:40.341Z,13.30
2017-11-24T03:02:07.766Z,13.30
2017-11-24T03:04:35.617Z,13.30
2017-11-24T03:07:03.154Z,13.30
2017-11-24T03:09:30.602Z,13.30
2017-11-24T03:11:58.024Z,13.30
2017-11-24T03:14:25.848Z,13.40
2017-11-24T03:16:54.205Z,13.40
2017-11-24T03:19:21.632Z,13.30
2017-11-24T03:21:49.064Z,13.40
2017-11-24T03:24:16.476Z,13.40
2017-11-24T03:26:43.926Z,13.40
2017-11-24T03:29:11.773Z,13.30
2017-11-24T03:31:39.180Z,13.30
2017-11-24T03:34:07.653Z,13.30
2017-11-24T03:36:35.161Z,13.30
2017-11-24T03:39:02.577Z,13.40
2017-11-24T03:41:30.069Z,13.30
2017-11-24T03:43:57.504Z,13.20
2017-11-24T03:46:24.986Z,13.20
2017-11-24T03:48:52.421Z,13.30
2017-11-24T03:51:20.241Z,13.40
2017-11-24T03:53:47.688Z,13.40
2017-11-24T03:56:15.666Z,13.40
2017-11-24T03:58:43.090Z,13.40
2017-11-24T04:01:10.916Z,13.40
2017-11-24T04:03:38.359Z,13.40
2017-11-24T04:06:05.772Z,13.40
2017-11-24T04:08:33.606Z,13.30
2017-11-24T04:11:01.046Z,13.30
2017-11-24T04:13:28.476Z,13.30
2017-11-24T04:15:56.301Z,13.20
2017-11-24T04:18:23.744Z,13.20
2017-11-24T04:20:51.175Z,13.20
2017-11-24T04:23:18.609Z,13.10
2017-11-24T04:25:46.116Z,13.10
2017-11-24T04:28:13.540Z,13.10
2017-11-24T04:30:41.386Z,13.10
2017-11-24T04:33:08.811Z,13.10
2017-11-24T04:35:36.232Z,13.10
2017-11-24T04:38:04.055Z,13.10
2017-11-24T04:40:31.506Z,13.10
2017-11-24T04:42:58.942Z,13.10
2017-11-24T04:45:27.376Z,13.10
2017-11-24T04:47:54.809Z,13.10
2017-11-24T04:50:22.234Z,13.10
2017-11-24T04:52:50.054Z,13.10
2017-11-24T04:55:17.518Z,13.10
2017-11-24T04:57:44.917Z,13.10
2017-11-24T05:00:12.352Z,13.20
2017-11-24T05:02:39.800Z,13.20
2017-11-24T05:05:07.872Z,13.20
2017-11-24T05:07:35.327Z,13.30
2017-11-24T05:10:02.746Z,13.30
2017-11-24T05:12:30.753Z,13.20
2017-11-24T05:14:58.184Z,13.30
2017-11-24T05:17:26.028Z,13.30
2017-11-24T05:19:53.445Z,13.30
2017-11-24T05:22:20.869Z,13.20
2017-11-24T05:24:48.728Z,13.20
2017-11-24T05:27:16.157Z,13.20
2017-11-24T05:29:43.584Z,13.20
2017-11-24T05:32:11.409Z,13.20
2017-11-24T05:34:38.830Z,13.20
2017-11-24T05:37:06.266Z,13.10
2017-11-24T05:39:34.096Z,13.00
2017-11-24T05:42:01.561Z,13.00
2017-11-24T05:44:29.117Z,13.00
2017-11-24T05:46:56.522Z,12.90
2017-11-24T05:49:24.347Z,12.90
2017-11-24T05:51:51.789Z,12.90
2017-11-24T05:54:19.227Z,13.00
2017-11-24T05:56:46.719Z,13.00
2017-11-24T05:59:14.162Z,13.00
2017-11-24T06:01:41.580Z,12.90
2017-11-24T06:04:09.105Z,12.90
2017-11-24T06:06:36.553Z,12.90
2017-11-24T06:09:03.974Z,12.90
2017-11-24T06:11:31.789Z,12.90
2017-11-24T06:13:59.234Z,12.90
2017-11-24T06:16:26.660Z,12.80
2017-11-24T06:18:54.081Z,12.90
2017-11-24T06:21:21.543Z,12.80
2017-11-24T06:23:48.969Z,12.80
2017-11-24T06:26:16.474Z,12.90
2017-11-24T06:28:43.951Z,12.90
2017-11-24T06:31:11.378Z,12.80
2017-11-24T06:33:38.805Z,12.80
2017-11-24T06:36:06.710Z,12.80
2017-11-24T06:38:34.138Z,12.80
2017-11-24T06:41:02.061Z,12.80
2017-11-24T06:43:29.495Z,12.80
2017-11-24T06:45:56.919Z,12.80
2017-11-24T06:48:24.352Z,12.80
2017-11-24T06:50:51.766Z,12.90
2017-11-24T06:53:19.588Z,12.90
2017-11-24T06:55:47.046Z,12.90
2017-11-24T06:58:14.465Z,12.90
2017-11-24T07:00:41.905Z,12.90
2017-11-24T07:03:09.346Z,12.90
2017-11-24T07:05:36.781Z,12.90
2017-11-24T07:08:04.209Z,12.80
2017-11-24T07:10:32.029Z,12.80
2017-11-24T07:12:59.460Z,12.80
2017-11-24T07:15:26.903Z,12.80
2017-11-24T07:17:54.729Z,12.80
2017-11-24T07:20:22.318Z,12.80
2017-11-24T07:22:49.826Z,12.80
2017-11-24T07:25:17.254Z,12.80
2017-11-24T07:27:44.678Z,12.80
2017-11-24T07:30:12.110Z,12.80
2017-11-24T07:32:39.524Z,12.90
2017-11-24T07:35:07.437Z,12.90
2017-11-24T07:37:34.869Z,12.90
2017-11-24T07:40:02.701Z,12.90
2017-11-24T07:42:30.122Z,12.90
2017-11-24T07:44:57.602Z,13.00
2017-11-24T07:47:25.022Z,12.90
2017-11-24T07:49:52.871Z,13.00
2017-11-24T07:52:20.288Z,13.00
2017-11-24T07:54:47.744Z,13.00
2017-11-24T07:57:15.180Z,13.00
2017-11-24T07:59:42.996Z,13.00
2017-11-24T08:02:10.433Z,13.00
2017-11-24T08:04:37.862Z,13.00
2017-11-24T08:07:05.677Z,13.20
2017-11-24T08:09:33.109Z,13.20
2017-11-24T08:12:00.521Z,13.20
2017-11-24T08:14:27.961Z,13.20
2017-11-24T08:16:55.384Z,13.20
2017-11-24T08:19:23.203Z,13.30
2017-11-24T08:21:50.640Z,13.30
2017-11-24T08:24:18.085Z,13.30
2017-11-24T08:26:45.505Z,13.30
2017-11-24T08:29:13.142Z,13.30
2017-11-24T08:31:40.626Z,13.30
2017-11-24T08:34:08.056Z,13.40
2017-11-24T08:36:35.476Z,13.40
2017-11-24T08:39:03.309Z,13.40
2017-11-24T08:41:30.878Z,13.40
2017-11-24T08:43:58.311Z,13.40
2017-11-24T08:46:31.765Z,13.40
2017-11-24T08:49:04.778Z,13.50
2017-11-24T08:51:33.024Z,13.50
2017-11-24T08:54:00.455Z,13.50
2017-11-24T08:56:27.875Z,13.50
2017-11-24T08:58:55.297Z,13.60
2017-11-24T09:01:22.729Z,13.60
2017-11-24T09:03:50.161Z,13.70
2017-11-24T09:06:17.617Z,13.60
2017-11-24T09:08:45.833Z,13.70
2017-11-24T09:11:13.275Z,13.80
2017-11-24T09:13:40.709Z,13.80
2017-11-24T09:16:08.537Z,13.80
2017-11-24T09:18:35.958Z,13.80
2017-11-24T09:21:03.374Z,13.90
2017-11-24T09:23:30.948Z,13.90
2017-11-24T09:25:58.365Z,13.90
2017-11-24T09:28:25.772Z,14.00
2017-11-24T09:30:53.225Z,14.00
2017-11-24T09:33:20.654Z,14.00
2017-11-24T09:35:48.077Z,13.90
2017-11-24T09:38:15.914Z,14.00
2017-11-24T09:40:43.349Z,14.00
2017-11-24T09:43:10.815Z,14.00
2017-11-24T09:45:38.234Z,14.00
2017-11-24T09:48:06.065Z,14.00
2017-11-24T09:50:33.496Z,14.00
2017-11-24T09:53:00.917Z,14.00
2017-11-24T09:55:28.739Z,14.00
2017-11-24T09:57:56.187Z,14.00
2017-11-24T10:00:24.224Z,14.00
2017-11-24T10:02:52.034Z,14.00
2017-11-24T10:05:19.478Z,14.00
2017-11-24T10:07:46.898Z,14.10
2017-11-24T10:10:14.381Z,14.20
2017-11-24T10:12:41.812Z,14.20
2017-11-24T10:15:09.228Z,14.20
2017-11-24T10:17:36.669Z,14.30
2017-11-24T10:20:04.101Z,14.30
2017-11-24T10:22:37.321Z,14.30
2017-11-24T10:25:05.168Z,14.30
2017-11-24T10:27:33.509Z,14.30
2017-11-24T10:30:00.926Z,14.40
2017-11-24T10:32:28.380Z,14.40
2017-11-24T10:34:55.811Z,14.40
2017-11-24T10:37:23.264Z,14.50
2017-11-24T10:39:50.711Z,14.40
2017-11-24T10:42:18.129Z,14.50
2017-11-24T10:44:45.549Z,14.50
2017-11-24T10:47:13.012Z,14.50
2017-11-24T10:49:41.581Z,14.50
2017-11-24T10:52:09.049Z,14.50
2017-11-24T10:54:36.484Z,14.60
2017-11-24T10:57:04.302Z,14.60
2017-11-24T10:59:31.745Z,14.60
2017-11-24T11:01:59.185Z,14.70
2017-11-24T11:04:26.669Z,14.60
2017-11-24T11:06:54.101Z,14.60
2017-11-24T11:09:21.921Z,14.50
2017-11-24T11:11:49.356Z,14.50
2017-11-24T11:14:16.787Z,14.50
2017-11-24T11:16:44.596Z,14.40
2017-11-24T11:19:12.017Z,14.40
2017-11-24T11:21:39.852Z,14.50
2017-11-24T11:24:07.274Z,14.50
2017-11-24T11:26:34.725Z,14.50
2017-11-24T11:29:02.152Z,14.50
2017-11-24T11:31:29.577Z,14.50
2017-11-24T11:33:57.014Z,14.60
2017-11-24T11:36:24.438Z,14.50
2017-11-24T11:38:51.862Z,14.60
2017-11-24T11:41:19.302Z,14.50
2017-11-24T11:43:46.756Z,14.50
2017-11-24T11:46:14.549Z,14.50
2017-11-24T11:48:41.981Z,14.50
2017-11-24T11:51:09.484Z,14.60
2017-11-24T11:53:36.900Z,14.60
2017-11-24T11:56:05.144Z,14.50
2017-11-24T11:58:32.581Z,14.60
2017-11-24T12:01:00.002Z,14.60
2017-11-24T12:03:27.828Z,14.50
2017-11-24T12:05:55.282Z,14.50
2017-11-24T12:08:22.701Z,14.50
2017-11-24T12:10:50.116Z,14.50
2017-11-24T12:13:17.557Z,14.50
2017-11-24T12:15:44.980Z,14.50
2017-11-24T12:18:12.411Z,14.50
2017-11-24T12:20:39.939Z,14.50
2017-11-24T12:23:08.024Z,14.50
2017-11-24T12:25:35.448Z,14.50
2017-11-24T12:28:02.931Z,14.50
2017-11-24T12:30:30.344Z,14.50
2017-11-24T12:32:57.803Z,14.50
2017-11-24T12:35:25.322Z,14.50
2017-11-24T12:37:52.759Z,14.50
2017-11-24T12:40:20.193Z,14.40
2017-11-24T12:42:47.980Z,14.40
2017-11-24T12:45:15.801Z,14.40
2017-11-24T12:47:44.161Z,14.40
2017-11-24T12:50:11.580Z,14.40
2017-11-24T12:52:39.443Z,14.40
2017-11-24T12:55:06.868Z,14.40
2017-11-24T12:57:35.147Z,14.40
2017-11-24T13:00:02.586Z,14.40
2017-11-24T13:02:30.081Z,14.50
2017-11-24T13:04:57.553Z,14.40
2017-11-24T13:07:24.977Z,14.40
2017-11-24T13:09:52.406Z,14.40
2017-11-24T13:12:20.249Z,14.50
2017-11-24T13:14:47.786Z,14.50
2017-11-24T13:17:15.217Z,14.40
2017-11-24T13:19:42.645Z,14.40
2017-11-24T13:22:10.077Z,14.40
2017-11-24T13:24:37.657Z,14.40
2017-11-24T13:27:05.088Z,14.30
2017-11-24T13:29:32.517Z,14.30
2017-11-24T13:32:02.073Z,14.30
2017-11-24T13:34:29.505Z,14.30
2017-11-24T13:36:57.014Z,14.30
2017-11-24T13:39:24.436Z,14.20
2017-11-24T13:41:51.902Z,14.20
2017-11-24T13:44:19.974Z,14.20
2017-11-24T13:46:47.398Z,14.10
2017-11-24T13:49:15.758Z,14.10
2017-11-24T13:51:43.206Z,14.10
2017-11-24T13:54:10.609Z,14.20
2017-11-24T13:56:38.415Z,14.30
2017-11-24T13:59:05.862Z,14.30
2017-11-24T14:01:33.276Z,14.30
2017-11-24T14:04:00.710Z,14.30
2017-11-24T14:06:28.206Z,14.30
2017-11-24T14:08:55.640Z,14.20
2017-11-24T14:11:23.094Z,14.20
2017-11-24T14:13:50.499Z,14.10
2017-11-24T14:16:17.942Z,14.10
2017-11-24T14:18:45.378Z,14.00
2017-11-24T14:21:12.805Z,14.00
2017-11-24T14:23:40.257Z,13.90
2017-11-24T14:26:08.086Z,13.90
2017-11-24T14:28:35.521Z,13.90
2017-11-24T14:31:02.949Z,13.90
2017-11-24T14:33:30.770Z,13.90
2017-11-24T14:35:58.194Z,13.90
2017-11-24T14:38:25.681Z,13.90
2017-11-24T14:40:53.122Z,13.90
2017-11-24T14:43:20.550Z,13.90
2017-11-24T14:45:48.061Z,13.80
2017-11-24T14:48:30.386Z,13.70
2017-11-24T14:50:57.811Z,13.70
2017-11-24T14:53:25.248Z,13.70
2017-11-24T14:55:53.060Z,13.70
2017-11-24T14:58:20.505Z,13.70
2017-11-24T15:00:47.938Z,13.70
2017-11-24T15:03:15.758Z,13.80
2017-11-24T15:05:43.170Z,13.80
2017-11-24T15:08:10.986Z,13.90
2017-11-24T15:10:38.420Z,13.90
2017-11-24T15:13:05.873Z,13.80
2017-11-24T15:15:33.713Z,13.60
2017-11-24T15:18:01.152Z,13.60
2017-11-24T15:20:28.559Z,13.60
2017-11-24T15:22:56.394Z,13.40
2017-11-24T15:25:23.864Z,13.40
2017-11-24T15:27:51.780Z,13.40
2017-11-24T15:30:19.266Z,13.40
2017-11-24T15:32:46.740Z,13.30
2017-11-24T15:35:14.180Z,13.20
2017-11-24T15:37:41.605Z,13.20
2017-11-24T15:40:09.424Z,13.20
2017-11-24T15:42:37.109Z,13.20
2017-11-24T15:45:04.538Z,13.20
2017-11-24T15:47:32.128Z,13.10
2017-11-24T15:49:59.566Z,13.10
2017-11-24T15:52:26.994Z,13.10
2017-11-24T15:54:54.829Z,13.10
2017-11-24T15:57:22.245Z,13.10
2017-11-24T15:59:49.666Z,13.00
2017-11-24T16:02:17.158Z,13.00
2017-11-24T16:04:45.015Z,13.00
2017-11-24T16:07:12.529Z,13.00
2017-11-24T16:09:39.964Z,13.00
2017-11-24T16:12:07.464Z,12.90
2017-11-24T16:14:34.906Z,12.90
2017-11-24T16:17:02.330Z,12.90
2017-11-24T16:19:30.145Z,12.90
2017-11-24T16:21:57.605Z,12.90
2017-11-24T16:24:25.085Z,12.90
2017-11-24T16:26:52.498Z,12.90
2017-11-24T16:29:21.424Z,12.80
2017-11-24T16:31:48.905Z,12.80
2017-11-24T16:34:16.326Z,12.80
2017-11-24T16:36:43.771Z,12.80
2017-11-24T16:39:11.573Z,12.70
2017-11-24T16:41:39.006Z,12.70
2017-11-24T16:44:06.855Z,12.70
2017-11-24T16:46:34.274Z,12.70
2017-11-24T16:49:01.712Z,12.60
2017-11-24T16:51:29.149Z,12.60
2017-11-24T16:53:56.969Z,12.60
2017-11-24T16:56:24.405Z,12.60
2017-11-24T16:58:51.830Z,12.60
2017-11-24T17:01:19.250Z,12.50
2017-11-24T17:03:46.724Z,12.50
2017-11-24T17:06:14.171Z,12.50
2017-11-24T17:08:41.649Z,12.50
2017-11-24T17:11:09.100Z,12.40
2017-11-24T17:13:36.545Z,12.40
2017-11-24T17:16:03.964Z,12.30
2017-11-24T17:18:31.842Z,12.30
2017-11-24T17:20:59.754Z,12.30
2017-11-24T17:23:27.190Z,12.30
2017-11-24T17:25:55.031Z,12.20
2017-11-24T17:28:22.569Z,12.20
2017-11-24T17:30:49.989Z,12.20
2017-11-24T17:33:17.485Z,12.20
2017-11-24T17:35:44.944Z,12.20
2017-11-24T17:38:13.035Z,12.20
2017-11-24T17:40:40.473Z,12.20
2017-11-24T17:43:07.906Z,12.20
2017-11-24T17:45:35.842Z,12.10
2017-11-24T17:48:03.300Z,12.10
2017-11-24T17:50:30.747Z,12.10
2017-11-24T17:52:58.177Z,12.00
2017-11-24T17:55:25.643Z,12.00
2017-11-24T17:57:53.062Z,12.00
2017-11-24T18:00:20.501Z,11.90
2017-11-24T18:02:48.069Z,11.90
2017-11-24T18:05:15.480Z,11.90
2017-11-24T18:07:42.921Z,11.80
2017-11-24T18:10:10.861Z,11.90
2017-11-24T18:12:39.019Z,11.90
2017-11-24T18:15:07.318Z,11.90
2017-11-24T18:17:34.845Z,11.80
2017-11-24T18:20:02.325Z,11.80
2017-11-24T18:22:29.779Z,11.90
2017-11-24T18:24:57.258Z,11.90
2017-11-24T18:27:24.779Z,11.80
2017-11-24T18:29:52.694Z,11.80
2017-11-24T18:32:20.152Z,11.80
2017-11-24T18:34:47.631Z,11.80
2017-11-24T18:37:15.086Z,11.80
2017-11-24T18:39:42.540Z,11.80
2017-11-24T18:42:09.990Z,11.70
2017-11-24T18:44:37.415Z,11.70
2017-11-24T18:47:05.243Z,11.70
2017-11-24T18:49:32.794Z,11.70
2017-11-24T18:52:00.239Z,11.70
2017-11-24T18:54:27.741Z,11.70
2017-11-24T18:56:55.195Z,11.70
2017-11-24T18:59:22.638Z,11.70
2017-11-24T19:01:50.078Z,11.70
2017-11-24T19:04:17.533Z,11.70
2017-11-24T19:06:45.019Z,11.70
2017-11-24T19:09:13.312Z,11.70
2017-11-24T19:11:40.755Z,11.70
2017-11-24T19:14:08.191Z,11.70
2017-11-24T19:16:36.229Z,11.70
2017-11-24T19:19:03.686Z,11.70
2017-11-24T19:21:31.155Z,11.60
2017-11-24T19:23:58.634Z,11.70
2017-11-24T19:26:26.082Z,11.60
2017-11-24T19:28:53.546Z,11.60
2017-11-24T19:31:21.004Z,11.60
2017-11-24T19:33:48.464Z,11.50
2017-11-24T19:36:15.908Z,11.60
2017-11-24T19:38:43.366Z,11.50
2017-11-24T19:41:10.808Z,11.50
2017-11-24T19:43:38.251Z,11.50
2017-11-24T19:46:05.688Z,11.50
2017-11-24T19:48:33.155Z,11.50
2017-11-24T19:51:00.590Z,11.50
2017-11-24T19:53:28.016Z,11.50
2017-11-24T19:55:55.894Z,11.50
2017-11-24T19:58:23.365Z,11.40
2017-11-24T20:00:50.813Z,11.40
2017-11-24T20:03:18.281Z,11.40
2017-11-24T20:05:45.745Z,11.40
2017-11-24T20:08:13.227Z,11.40
2017-11-24T20:10:40.677Z,11.40
2017-11-24T20:13:08.121Z,11.40
2017-11-24T20:15:35.602Z,11.40
2017-11-24T20:18:03.057Z,11.40
2017-11-24T20:20:30.504Z,11.40
2017-11-24T20:22:58.227Z,11.40
2017-11-24T20:25:25.659Z,11.40
2017-11-24T20:27:53.208Z,11.40
2017-11-24T20:30:20.683Z,11.40
2017-11-24T20:32:48.121Z,11.40
2017-11-24T20:35:15.549Z,11.40
2017-11-24T20:37:43.401Z,11.30
2017-11-24T20:40:10.825Z,11.30
2017-11-24T20:42:38.492Z,11.30
2017-11-24T20:45:06.069Z,11.40
2017-11-24T20:47:33.529Z,11.40
2017-11-24T20:50:00.973Z,11.40
2017-11-24T20:52:28.429Z,11.40
2017-11-24T20:54:55.861Z,11.40
2017-11-24T20:57:24.301Z,11.40
2017-11-24T20:59:51.909Z,11.40
2017-11-24T21:02:19.733Z,11.40
2017-11-24T21:04:47.209Z,11.40
2017-11-24T21:07:14.643Z,11.40
2017-11-24T21:09:42.448Z,11.40
2017-11-24T21:12:09.865Z,11.40
2017-11-24T21:14:37.342Z,11.40
2017-11-24T21:17:04.790Z,11.40
2017-11-24T21:19:32.280Z,11.40
2017-11-24T21:21:59.748Z,11.40
2017-11-24T21:24:27.174Z,11.40
2017-11-24T21:26:54.680Z,11.40
2017-11-24T21:29:23.529Z,11.40
2017-11-24T21:31:51.082Z,11.40
2017-11-24T21:34:18.538Z,11.40
2017-11-24T21:36:46.487Z,11.40
2017-11-24T21:39:13.921Z,11.40
2017-11-24T21:41:42.210Z,11.40
2017-11-24T21:44:09.664Z,11.40
2017-11-24T21:46:37.204Z,11.40
2017-11-24T21:49:06.446Z,11.40
2017-11-24T21:51:33.888Z,11.40
2017-11-24T21:54:01.328Z,11.40
2017-11-24T21:56:28.833Z,11.40
2017-11-24T21:58:56.363Z,11.40
2017-11-24T22:01:23.811Z,11.40
2017-11-24T22:03:51.246Z,11.40
2017-11-24T22:06:19.103Z,11.40
2017-11-24T22:08:46.633Z,11.40
2017-11-24T22:11:14.148Z,11.40
2017-11-24T22:13:42.232Z,11.40
2017-11-24T22:16:09.671Z,11.40
2017-11-24T22:18:37.168Z,11.40
2017-11-24T22:21:04.675Z,11.40
2017-11-24T22:23:32.112Z,11.30
2017-11-24T22:25:59.558Z,11.30
2017-11-24T22:28:26.977Z,11.30
2017-11-24T22:30:54.827Z,11.30
2017-11-24T22:33:22.450Z,11.30
2017-11-24T22:35:49.889Z,11.30
2017-11-24T22:38:17.719Z,11.30
2017-11-24T22:40:45.186Z,11.30
2017-11-24T22:43:12.621Z,11.30
2017-11-24T22:45:40.194Z,11.30
2017-11-24T22:48:07.622Z,11.20
2017-11-24T22:50:35.060Z,11.20
2017-11-24T22:53:02.932Z,11.20
2017-11-24T22:55:30.753Z,11.20
2017-11-24T22:57:58.292Z,11.20
2017-11-24T23:00:25.745Z,11.20
2017-11-24T23:02:53.193Z,11.20
2017-11-24T23:05:21.059Z,11.20
2017-11-24T23:07:48.550Z,11.20
2017-11-24T23:10:16.003Z,11.20
2017-11-24T23:12:44.433Z,11.20
2017-11-24T23:15:11.871Z,11.20
2017-11-24T23:17:39.330Z,11.20
2017-11-24T23:20:06.777Z,11.30
2017-11-24T23:22:34.201Z,11.30
2017-11-24T23:25:01.635Z,11.30
2017-11-24T23:27:29.111Z,11.20
2017-11-24T23:29:56.556Z,11.20
2017-11-24T23:32:24.118Z,11.20
2017-11-24T23:34:53.130Z,11.30
2017-11-24T23:37:20.598Z,11.30
2017-11-24T23:39:48.058Z,11.30
2017-11-24T23:42:15.598Z,11.30
2017-11-24T23:44:43.043Z,11.30
2017-11-24T23:47:10.523Z,11.30
2017-11-24T23:49:37.957Z,11.30
2017-11-24T23:52:05.429Z,11.30
2017-11-24T23:54:32.868Z,11.30
2017-11-24T23:57:00.690Z,11.40
2017-11-24T23:59:28.150Z,11.40
